Time;durP1;ratioP1;P1;durP2;ratioP2;P2;SDS_P1;SDS_P2;PMS_P1;PMS_P2;Temp;Humidity;BMP_temperature;BMP_pressure;BME280_temperature;BME280_humidity;BME280_pressure;Samples;Min_cycle;Max_cycle;Signal;HPM_P1;HPM_P2
2022/11/15 00:00:34;;;;;;;4.32;1.55;;;11.10;99.90;;;;;;4964750;28;20117;-74
2022/11/15 00:02:59;;;;;;;5.68;1.90;;;11.10;99.90;;;;;;4961862;28;20415;-74
2022/11/15 00:05:25;;;;;;;5.78;1.85;;;11.10;99.90;;;;;;4965735;28;20057;-75
2022/11/15 00:07:51;;;;;;;3.95;1.92;;;11.10;99.90;;;;;;4962673;28;20484;-74
2022/11/15 00:10:17;;;;;;;6.82;2.45;;;11.00;99.90;;;;;;4965334;28;20046;-75
2022/11/15 00:12:43;;;;;;;3.45;1.58;;;11.00;99.90;;;;;;4961136;28;20036;-74
2022/11/15 00:15:08;;;;;;;6.18;2.35;;;11.10;99.90;;;;;;4965400;28;20034;-74
2022/11/15 00:17:34;;;;;;;6.45;2.40;;;11.10;99.90;;;;;;4962700;28;20114;-74
2022/11/15 00:20:00;;;;;;;3.03;1.83;;;11.00;99.90;;;;;;4963980;28;20039;-74
2022/11/15 00:22:33;;;;;;;2.97;1.85;;;11.00;99.90;;;;;;4966823;28;20020;-74
2022/11/15 00:24:58;;;;;;;3.53;1.95;;;11.10;99.90;;;;;;4963826;28;20039;-74
2022/11/15 00:27:24;;;;;;;7.50;2.03;;;11.10;99.90;;;;;;4965435;28;20050;-74
2022/11/15 00:29:49;;;;;;;2.58;1.42;;;11.10;99.90;;;;;;4975603;28;20027;-75
2022/11/15 00:32:15;;;;;;;1.77;1.27;;;11.10;99.90;;;;;;4969132;28;20043;-74
2022/11/15 00:34:41;;;;;;;4.82;1.90;;;11.20;99.90;;;;;;4957356;28;20039;-74
2022/11/15 00:37:07;;;;;;;5.00;2.10;;;11.10;99.90;;;;;;4971099;28;20081;-74
2022/11/15 00:39:32;;;;;;;5.20;2.17;;;11.10;99.90;;;;;;4957178;28;20035;-74
2022/11/15 00:41:58;;;;;;;8.13;2.28;;;11.10;99.90;;;;;;4972369;28;20042;-74
2022/11/15 00:44:24;;;;;;;4.82;2.03;;;11.10;99.90;;;;;;4956743;28;20039;-74
2022/11/15 00:46:49;;;;;;;4.95;2.45;;;11.10;99.90;;;;;;4970940;28;20039;-74
2022/11/15 00:49:15;;;;;;;5.25;2.15;;;11.10;99.90;;;;;;4957108;28;20034;-74
2022/11/15 00:51:41;;;;;;;4.55;2.50;;;11.10;99.90;;;;;;4969778;28;20447;-74
2022/11/15 00:54:06;;;;;;;6.82;1.90;;;11.20;99.90;;;;;;4958389;28;20035;-74
2022/11/15 00:56:32;;;;;;;5.68;2.40;;;11.20;99.90;;;;;;4967884;28;20027;-74
2022/11/15 00:58:58;;;;;;;2.33;1.48;;;11.20;99.90;;;;;;4959189;28;20122;-74
2022/11/15 01:01:23;;;;;;;4.22;1.50;;;11.30;99.90;;;;;;4965959;28;20038;-74
2022/11/15 01:03:49;;;;;;;3.08;1.80;;;11.30;99.90;;;;;;4960060;28;20035;-74
2022/11/15 01:06:15;;;;;;;6.93;2.20;;;11.40;99.90;;;;;;4965857;28;20463;-74
2022/11/15 01:08:41;;;;;;;5.65;1.60;;;11.40;99.90;;;;;;4950451;28;20027;-74
2022/11/15 01:11:10;;;;;;;8.38;2.13;;;11.40;99.90;;;;;;4959530;28;20402;-74
2022/11/15 01:13:39;;;;;;;2.65;1.38;;;11.30;99.90;;;;;;4957116;28;20125;-74
2022/11/15 01:16:09;;;;;;;4.28;1.63;;;11.30;99.90;;;;;;4967637;28;20027;-74
2022/11/15 01:18:34;;;;;;;3.60;1.33;;;11.40;99.90;;;;;;4954906;28;20513;-74
2022/11/15 01:21:09;;;;;;;4.65;2.42;;;11.30;99.90;;;;;;4964370;28;20035;-74
2022/11/15 01:23:35;;;;;;;2.53;1.85;;;11.40;99.90;;;;;;4961707;28;20037;-74
2022/11/15 01:26:03;;;;;;;3.80;2.58;;;11.30;99.90;;;;;;4963000;28;20039;-74
2022/11/15 01:28:32;;;;;;;10.18;1.95;;;11.30;99.90;;;;;;4960283;28;20038;-74
2022/11/15 01:31:00;;;;;;;4.07;2.00;;;11.30;99.90;;;;;;4963012;28;20394;-74
2022/11/15 01:33:27;;;;;;;7.03;1.80;;;11.20;99.90;;;;;;4959501;28;20073;-74
2022/11/15 01:35:53;;;;;;;4.80;2.15;;;11.20;99.90;;;;;;4964075;28;20544;-74
2022/11/15 01:38:19;;;;;;;3.80;1.88;;;11.20;99.90;;;;;;4959752;28;20503;-74
2022/11/15 01:40:44;;;;;;;4.35;1.65;;;11.10;99.90;;;;;;4964117;28;20055;-74
2022/11/15 01:43:33;;;;;;;7.07;2.55;;;11.10;99.90;;;;;;4960980;28;20050;-74
2022/11/15 01:46:37;;;;;;;9.55;2.10;;;11.10;99.90;;;;;;4964116;28;20450;-74
2022/11/15 01:49:17;;;;;;;4.90;1.60;;;11.10;99.90;;;;;;4957830;28;20063;-74
2022/11/15 01:51:43;;;;;;;1.95;1.40;;;11.10;99.90;;;;;;4967772;28;20027;-74
2022/11/15 01:54:20;;;;;;;5.60;1.70;;;11.10;99.90;;;;;;4955557;28;20039;-74
2022/11/15 01:57:10;;;;;;;7.40;1.65;;;11.20;99.90;;;;;;4956009;28;20113;-74
2022/11/15 01:59:40;;;;;;;2.40;1.40;;;11.20;99.90;;;;;;4956653;28;20401;-74
2022/11/15 02:02:06;;;;;;;3.97;2.15;;;11.20;99.90;;;;;;4950771;29;20028;-74
2022/11/15 02:04:39;;;;;;;3.40;2.05;;;11.10;99.90;;;;;;4952302;28;20023;-74
2022/11/15 02:07:06;;;;;;;5.50;2.03;;;11.00;99.90;;;;;;4943672;28;20045;-74
2022/11/15 02:09:32;;;;;;;3.47;1.75;;;11.00;99.90;;;;;;4955285;28;20483;-74
2022/11/15 02:11:59;;;;;;;2.65;1.67;;;10.90;99.90;;;;;;4945835;29;20043;-74
2022/11/15 02:14:27;;;;;;;2.72;1.38;;;10.90;99.90;;;;;;4965372;28;20558;-74
2022/11/15 02:17:24;;;;;;;5.68;2.75;;;10.90;99.90;;;;;;4956327;29;20038;-74
2022/11/15 02:20:47;;;;;;;3.28;1.52;;;10.90;99.90;;;;;;4964794;28;20073;-74
2022/11/15 02:23:56;;;;;;;5.30;1.90;;;10.90;99.90;;;;;;4968047;28;20058;-74
2022/11/15 02:26:32;;;;;;;3.15;1.90;;;10.80;99.90;;;;;;4966538;28;20482;-74
2022/11/15 02:29:10;;;;;;;2.92;1.60;;;10.80;99.90;;;;;;4965345;28;20046;-74
2022/11/15 02:32:04;;;;;;;3.15;2.35;;;10.70;99.90;;;;;;4973112;28;20101;-74
2022/11/15 02:34:50;;;;;;;4.55;2.00;;;10.70;99.90;;;;;;4978892;23;20049;-73
2022/11/15 02:37:17;;;;;;;2.13;1.13;;;10.60;99.90;;;;;;4991638;28;20035;-73
2022/11/15 02:40:17;;;;;;;4.60;2.42;;;10.60;99.90;;;;;;4981245;28;20022;-73
2022/11/15 02:45:56;;;;;;;6.85;3.03;;;10.50;99.90;;;;;;4980086;28;20053;-74
2022/11/15 02:48:24;;;;;;;4.13;1.83;;;10.50;99.90;;;;;;4970792;28;20057;-73
2022/11/15 02:50:51;;;;;;;3.65;1.77;;;10.40;99.90;;;;;;4975971;28;20513;-74
2022/11/15 02:53:16;;;;;;;5.65;2.22;;;10.50;99.90;;;;;;4983159;28;20554;-74
2022/11/15 02:55:48;;;;;;;4.47;1.77;;;10.50;99.90;;;;;;4975632;28;20042;-74
2022/11/15 02:58:44;;;;;;;4.95;1.90;;;10.40;99.90;;;;;;4976151;28;20038;-74
2022/11/15 03:01:59;;;;;;;3.55;1.30;;;10.40;99.90;;;;;;4971242;28;20074;-74
2022/11/15 03:05:09;;;;;;;8.75;2.15;;;10.30;99.90;;;;;;4961212;28;20450;-75
2022/11/15 03:08:10;;;;;;;3.28;1.73;;;10.30;99.90;;;;;;4969068;28;20388;-74
2022/11/15 03:11:11;;;;;;;1.80;1.08;;;10.30;99.90;;;;;;4970744;28;20035;-74
2022/11/15 03:14:11;;;;;;;6.85;2.67;;;10.30;99.90;;;;;;4988888;28;20093;-74
2022/11/15 03:16:40;;;;;;;6.63;2.00;;;10.30;99.90;;;;;;4962050;28;20135;-74
2022/11/15 03:19:43;;;;;;;2.03;1.25;;;10.40;99.90;;;;;;4957105;28;20094;-74
2022/11/15 03:22:14;;;;;;;1.90;1.55;;;10.50;99.90;;;;;;4962950;28;20043;-74
2022/11/15 03:24:42;;;;;;;2.72;1.65;;;10.50;99.90;;;;;;4970289;28;20027;-74
2022/11/15 03:27:12;;;;;;;3.40;1.73;;;10.60;99.90;;;;;;4963102;28;20045;-74
2022/11/15 03:29:42;;;;;;;6.95;2.03;;;10.60;99.90;;;;;;4970316;28;20511;-73
2022/11/15 03:32:34;;;;;;;5.47;1.70;;;10.60;99.90;;;;;;4977840;28;20031;-73
2022/11/15 03:35:11;;;;;;;4.00;1.50;;;10.60;99.90;;;;;;4973436;28;21425;-73
2022/11/15 03:37:51;;;;;;;2.60;1.52;;;10.70;99.90;;;;;;4961997;28;20036;-74
2022/11/15 03:40:21;;;;;;;9.05;1.55;;;10.80;99.90;;;;;;4958722;28;20039;-74
2022/11/15 03:43:10;;;;;;;3.30;1.80;;;10.80;99.90;;;;;;4964325;28;20090;-74
2022/11/15 03:45:51;;;;;;;1.42;1.20;;;10.80;99.90;;;;;;4976012;28;20615;-74
2022/11/15 03:48:24;;;;;;;4.32;1.85;;;10.80;99.90;;;;;;4981747;28;20046;-74
2022/11/15 03:50:50;;;;;;;2.30;1.55;;;10.80;99.90;;;;;;4982686;28;20034;-74
2022/11/15 03:53:16;;;;;;;3.90;1.90;;;10.80;99.90;;;;;;4982599;28;20038;-73
2022/11/15 03:55:42;;;;;;;4.70;1.90;;;10.80;99.90;;;;;;4983556;28;20144;-73
2022/11/15 03:58:08;;;;;;;4.57;1.67;;;10.70;99.90;;;;;;4965008;28;20030;-73
2022/11/15 04:00:34;;;;;;;2.88;1.58;;;10.70;99.90;;;;;;4973407;28;20094;-75
2022/11/15 04:02:59;;;;;;;2.88;1.77;;;10.70;99.90;;;;;;4961298;28;20039;-74
2022/11/15 04:05:25;;;;;;;2.22;1.65;;;10.70;99.90;;;;;;4961826;28;20067;-73
2022/11/15 04:07:51;;;;;;;4.18;1.38;;;10.70;99.90;;;;;;4967136;28;20046;-74
2022/11/15 04:10:17;;;;;;;3.67;1.83;;;10.70;99.90;;;;;;4973155;28;20097;-73
2022/11/15 04:12:47;;;;;;;2.70;1.60;;;10.70;99.90;;;;;;4962757;28;20114;-73
2022/11/15 04:15:20;;;;;;;4.25;2.00;;;10.70;99.90;;;;;;4972825;28;20043;-74
2022/11/15 04:17:53;;;;;;;5.72;2.47;;;10.70;99.90;;;;;;4962984;28;20097;-74
2022/11/15 04:26:06;;;;;;;5.68;1.55;;;10.70;99.90;;;;;;4977951;28;20071;-74
2022/11/15 04:28:33;;;;;;;;;;;10.70;99.90;;;;;;4983848;28;20043;-74
2022/11/15 04:30:59;;;;;;;1.77;1.20;;;10.80;99.90;;;;;;4969667;28;19921;-74
2022/11/15 04:33:24;;;;;;;2.22;1.33;;;10.80;99.90;;;;;;4966728;28;20034;-74
2022/11/15 04:38:36;;;;;;;10.00;2.05;;;10.90;99.90;;;;;;4981361;28;20042;-74
2022/11/15 04:41:03;;;;;;;5.93;2.13;;;10.80;99.90;;;;;;4969703;28;20027;-74
2022/11/15 04:43:29;;;;;;;5.00;1.45;;;10.80;99.90;;;;;;4982798;28;20035;-74
2022/11/15 04:45:55;;;;;;;5.38;1.70;;;10.80;99.90;;;;;;4970928;28;20058;-73
2022/11/15 04:48:21;;;;;;;4.80;2.00;;;10.80;99.90;;;;;;4966783;28;20395;-74
2022/11/15 04:50:50;;;;;;;9.35;2.03;;;10.80;99.90;;;;;;4971396;28;20042;-74
2022/11/15 04:53:15;;;;;;;3.67;1.73;;;10.80;99.90;;;;;;4966630;28;20053;-74
2022/11/15 04:55:46;;;;;;;3.70;2.15;;;10.80;99.90;;;;;;4971324;28;20498;-73
2022/11/15 04:58:11;;;;;;;6.72;1.83;;;10.90;99.90;;;;;;4966678;28;20030;-74
2022/11/15 05:00:37;;;;;;;13.10;2.25;;;10.90;99.90;;;;;;4966577;28;20039;-74
2022/11/15 05:05:47;;;;;;;8.00;2.20;;;10.90;99.90;;;;;;4970912;28;20038;-74
2022/11/15 05:08:12;;;;;;;3.85;2.00;;;10.90;99.90;;;;;;4965509;28;20606;-73
2022/11/15 05:10:38;;;;;;;9.95;1.67;;;10.90;99.90;;;;;;4967879;28;20039;-74
2022/11/15 05:13:04;;;;;;;5.93;1.77;;;10.90;99.90;;;;;;4961197;28;20041;-73
2022/11/15 05:15:29;;;;;;;2.47;1.60;;;10.80;99.90;;;;;;4957505;28;20125;-74
2022/11/15 05:18:00;;;;;;;5.40;2.28;;;10.80;99.90;;;;;;4963421;28;20074;-74
2022/11/15 05:20:26;;;;;;;3.83;1.63;;;10.80;99.90;;;;;;4971425;28;20421;-74
2022/11/15 05:22:55;;;;;;;2.50;1.65;;;10.90;99.90;;;;;;4964383;28;20110;-74
2022/11/15 05:25:21;;;;;;;2.80;1.58;;;10.90;99.90;;;;;;4971405;28;20042;-74
2022/11/15 05:27:47;;;;;;;6.85;3.10;;;10.80;99.90;;;;;;4978924;28;20149;-74
2022/11/15 05:30:14;;;;;;;5.43;2.83;;;10.80;99.90;;;;;;4971281;28;20125;-75
2022/11/15 05:32:39;;;;;;;11.05;2.85;;;10.90;99.90;;;;;;4964262;28;20030;-75
2022/11/15 05:35:10;;;;;;;5.43;1.92;;;10.80;99.90;;;;;;4971317;28;20089;-72
2022/11/15 05:37:35;;;;;;;5.93;2.70;;;10.80;99.90;;;;;;4978744;28;20034;-74
2022/11/15 05:40:01;;;;;;;5.95;1.88;;;10.90;99.90;;;;;;4971419;28;20029;-75
2022/11/15 05:42:29;;;;;;;4.57;2.20;;;10.80;99.90;;;;;;4964114;28;20027;-73
2022/11/15 05:44:56;;;;;;;3.58;1.58;;;10.80;99.90;;;;;;4981112;28;20035;-73
2022/11/15 05:47:27;;;;;;;4.05;2.00;;;10.80;99.90;;;;;;4978577;28;20023;-74
2022/11/15 05:49:54;;;;;;;4.55;1.65;;;10.80;99.90;;;;;;4968625;28;20041;-73
2022/11/15 05:52:25;;;;;;;5.90;1.67;;;10.80;99.90;;;;;;4963925;28;20572;-73
2022/11/15 05:54:52;;;;;;;4.82;1.90;;;10.90;99.90;;;;;;4981401;28;20043;-74
2022/11/15 05:57:17;;;;;;;3.47;1.38;;;10.90;99.90;;;;;;4978499;28;20035;-73
2022/11/15 05:59:43;;;;;;;2.63;1.75;;;11.00;99.90;;;;;;4981927;28;20486;-73
2022/11/15 06:02:11;;;;;;;2.92;1.80;;;10.90;99.90;;;;;;4963628;28;20034;-73
2022/11/15 06:04:36;;;;;;;13.10;2.05;;;10.90;99.90;;;;;;4966212;28;20035;-73
2022/11/15 06:07:02;;;;;;;4.15;1.60;;;10.90;99.90;;;;;;4967838;28;20038;-74
2022/11/15 06:09:28;;;;;;;3.20;1.88;;;11.00;99.90;;;;;;4963677;28;20049;-74
2022/11/15 06:11:54;;;;;;;5.28;2.28;;;11.00;99.90;;;;;;4962749;28;20037;-76
2022/11/15 06:14:20;;;;;;;2.50;1.75;;;11.00;99.90;;;;;;4962443;28;20058;-74
2022/11/15 06:16:45;;;;;;;4.55;1.85;;;11.10;99.90;;;;;;4957230;28;20109;-74
2022/11/15 06:19:11;;;;;;;6.03;2.60;;;11.10;99.90;;;;;;4963156;28;20100;-75
2022/11/15 06:21:37;;;;;;;3.80;2.03;;;11.10;99.90;;;;;;4971186;28;20023;-75
2022/11/15 06:24:03;;;;;;;6.97;1.85;;;11.10;99.90;;;;;;4961981;28;20034;-76
2022/11/15 06:26:28;;;;;;;2.25;1.30;;;11.10;99.90;;;;;;4969873;28;20046;-73
2022/11/15 06:28:54;;;;;;;3.33;1.48;;;11.30;99.90;;;;;;4955342;28;20028;-72
2022/11/15 06:31:20;;;;;;;2.28;1.33;;;11.30;99.90;;;;;;4970943;28;20105;-73
2022/11/15 06:33:46;;;;;;;3.40;1.40;;;11.30;99.90;;;;;;4963194;28;20041;-73
2022/11/15 06:36:16;;;;;;;3.67;1.45;;;11.10;99.90;;;;;;4970360;28;20038;-72
2022/11/15 06:38:44;;;;;;;4.18;2.03;;;11.10;99.90;;;;;;4963270;28;20030;-73
2022/11/15 06:41:11;;;;;;;4.43;1.80;;;11.10;99.90;;;;;;4970686;28;20023;-72
2022/11/15 06:43:38;;;;;;;2.60;1.85;;;11.10;99.90;;;;;;4978052;28;20102;-73
2022/11/15 06:46:05;;;;;;;3.65;1.48;;;11.20;99.90;;;;;;4970408;28;20035;-73
2022/11/15 06:48:32;;;;;;;3.95;1.95;;;11.30;99.90;;;;;;4981550;28;20097;-74
2022/11/15 06:51:02;;;;;;;3.63;1.40;;;11.30;99.90;;;;;;4930249;28;20047;-73
2022/11/15 06:53:29;;;;;;;4.07;1.55;;;11.30;99.90;;;;;;4958493;28;20410;-73
2022/11/15 06:56:02;;;;;;;4.18;1.80;;;11.20;99.90;;;;;;4964228;28;20026;-74
2022/11/15 06:58:29;;;;;;;10.95;2.33;;;11.10;99.90;;;;;;4953828;28;20537;-75
2022/11/15 07:01:03;;;;;;;3.33;1.65;;;11.20;99.90;;;;;;4971857;28;20039;-75
2022/11/15 07:03:29;;;;;;;2.20;1.38;;;11.20;99.90;;;;;;4988656;28;20509;-75
2022/11/15 07:05:56;;;;;;;5.40;3.28;;;11.20;99.90;;;;;;4963603;28;20043;-75
2022/11/15 07:08:26;;;;;;;3.03;1.83;;;11.20;99.90;;;;;;4966905;28;20034;-75
2022/11/15 07:10:52;;;;;;;8.02;2.40;;;11.20;99.90;;;;;;4972337;28;20035;-73
2022/11/15 07:13:18;;;;;;;5.57;2.35;;;11.10;99.90;;;;;;4960261;28;20419;-76
2022/11/15 07:15:44;;;;;;;9.60;2.15;;;11.10;99.90;;;;;;4971681;28;20027;-75
2022/11/15 07:18:10;;;;;;;3.05;1.80;;;11.10;99.90;;;;;;4963551;28;20537;-74
2022/11/15 07:20:35;;;;;;;4.07;1.60;;;11.10;99.90;;;;;;4961360;28;20459;-76
2022/11/15 07:23:03;;;;;;;4.82;2.05;;;11.10;99.90;;;;;;4959150;28;20031;-77
2022/11/15 07:25:29;;;;;;;5.10;2.30;;;11.10;99.90;;;;;;4981245;28;20478;-75
2022/11/15 07:27:59;;;;;;;2.88;1.80;;;11.20;99.90;;;;;;4970331;28;20121;-76
2022/11/15 07:30:26;;;;;;;11.05;2.17;;;11.10;99.90;;;;;;4961853;28;20031;-77
2022/11/15 07:32:57;;;;;;;10.75;3.40;;;11.10;99.90;;;;;;4970218;28;20085;-79
2022/11/15 07:35:24;;;;;;;;;;;11.20;99.90;;;;;;4955511;28;20512;-77
2022/11/15 07:38:02;;;;;;;24.38;5.78;;;11.20;99.90;;;;;;4970216;28;19917;-77
2022/11/15 07:40:31;;;;;;;30.92;7.10;;;11.20;99.90;;;;;;4955394;28;20240;-77
2022/11/15 07:43:02;;;;;;;17.25;4.55;;;11.20;99.90;;;;;;4963916;28;20514;-76
2022/11/15 07:45:28;;;;;;;;;;;11.30;99.90;;;;;;4984574;28;20038;-77
2022/11/15 07:47:55;;;;;;;16.88;4.32;;;11.30;99.90;;;;;;4970513;28;19968;-77
2022/11/15 07:50:23;;;;;;;12.57;4.15;;;11.30;99.90;;;;;;4955337;28;20035;-77
2022/11/15 07:52:55;;;;;;;13.23;2.97;;;11.40;99.90;;;;;;4940178;28;20046;-75
2022/11/15 07:55:22;;;;;;;9.95;3.17;;;11.60;99.90;;;;;;4967358;28;20549;-77
2022/11/15 07:57:48;;;;;;;9.68;2.53;;;11.60;99.90;;;;;;4935208;28;20061;-73
2022/11/15 08:00:15;;;;;;;6.93;1.58;;;11.60;99.90;;;;;;4954227;28;20110;-73
2022/11/15 08:02:42;;;;;;;7.43;1.92;;;11.70;99.90;;;;;;4969486;28;20054;-75
2022/11/15 08:05:08;;;;;;;3.83;1.65;;;11.70;99.90;;;;;;4969627;28;20122;-81
2022/11/15 08:07:34;;;;;;;10.07;4.28;;;11.70;99.90;;;;;;4965369;28;20035;-74
2022/11/15 08:10:03;;;;;;;3.75;1.73;;;11.70;99.90;;;;;;4987611;28;20042;-74
2022/11/15 08:12:29;;;;;;;3.53;2.08;;;11.70;99.90;;;;;;4965335;28;20039;-75
2022/11/15 08:14:56;;;;;;;3.05;1.67;;;11.70;99.90;;;;;;4972246;28;20046;-75
2022/11/15 08:17:23;;;;;;;6.00;1.70;;;11.70;99.90;;;;;;4966557;28;20110;-75
2022/11/15 08:19:49;;;;;;;6.40;2.25;;;11.70;99.90;;;;;;4971350;28;20074;-76
2022/11/15 08:22:15;;;;;;;4.30;2.45;;;11.70;99.90;;;;;;4964342;28;20035;-76
2022/11/15 08:24:41;;;;;;;7.00;2.17;;;11.80;99.90;;;;;;4970307;28;20054;-76
2022/11/15 08:27:14;;;;;;;9.88;2.45;;;11.80;99.90;;;;;;4967986;28;20027;-76
2022/11/15 08:29:44;;;;;;;4.90;2.08;;;11.90;99.90;;;;;;4984772;28;20053;-76
2022/11/15 08:32:11;;;;;;;4.93;2.07;;;11.90;99.90;;;;;;4968284;28;20027;-76
2022/11/15 08:34:38;;;;;;;4.38;2.45;;;12.00;99.90;;;;;;4982321;23;20030;-72
2022/11/15 08:37:04;;;;;;;7.43;2.35;;;12.00;99.90;;;;;;4970963;28;20900;-73
2022/11/15 08:39:30;;;;;;;6.25;2.45;;;12.10;99.90;;;;;;4971939;28;20027;-73
2022/11/15 08:41:55;;;;;;;4.90;1.52;;;12.10;99.90;;;;;;4969493;28;20030;-72
2022/11/15 08:44:21;;;;;;;5.03;1.63;;;12.20;99.90;;;;;;4952301;29;20038;-72
2022/11/15 08:46:47;;;;;;;3.50;1.88;;;12.30;99.90;;;;;;4962934;28;20081;-72
2022/11/15 08:49:13;;;;;;;6.95;2.25;;;12.30;99.90;;;;;;4970752;28;20459;-73
2022/11/15 08:51:39;;;;;;;4.55;2.05;;;12.30;99.90;;;;;;4954573;28;20023;-73
2022/11/15 08:54:04;;;;;;;8.73;2.15;;;12.30;99.90;;;;;;4964707;28;20097;-73
2022/11/15 08:56:30;;;;;;;3.67;1.80;;;12.30;99.90;;;;;;4958228;28;20070;-72
2022/11/15 08:58:56;;;;;;;3.22;1.73;;;12.30;99.90;;;;;;4962019;28;20419;-73
2022/11/15 09:01:22;;;;;;;3.67;1.50;;;12.30;99.90;;;;;;4966825;28;20034;-72
2022/11/15 09:03:48;;;;;;;5.10;1.95;;;12.30;99.90;;;;;;4964817;28;20031;-72
2022/11/15 09:06:14;;;;;;;3.15;1.77;;;12.30;99.90;;;;;;4965773;28;20072;-72
2022/11/15 09:08:40;;;;;;;4.00;1.63;;;12.20;99.90;;;;;;4965178;28;20054;-70
2022/11/15 09:11:09;;;;;;;2.60;1.55;;;12.20;99.90;;;;;;4956792;28;20090;-71
2022/11/15 09:13:39;;;;;;;15.52;3.83;;;12.30;99.90;;;;;;4959158;28;20085;-73
2022/11/15 09:16:05;;;;;;;16.38;3.53;;;12.30;99.90;;;;;;4964305;28;20513;-71
2022/11/15 09:18:31;;;;;;;6.82;2.83;;;12.30;99.90;;;;;;4966420;28;20027;-71
2022/11/15 09:20:59;;;;;;;5.05;1.60;;;12.30;99.90;;;;;;4963067;28;20544;-72
2022/11/15 09:23:25;;;;;;;20.75;6.57;;;12.30;99.90;;;;;;4970094;28;20482;-73
2022/11/15 09:25:52;;;;;;;8.00;3.45;;;12.30;99.90;;;;;;4959020;28;20418;-73
2022/11/15 09:28:18;;;;;;;9.45;2.92;;;12.40;99.90;;;;;;4963706;28;20065;-73
2022/11/15 09:30:43;;;;;;;4.60;1.80;;;12.40;99.90;;;;;;4967712;28;20062;-73
2022/11/15 09:33:11;;;;;;;5.65;1.50;;;12.50;99.90;;;;;;4962539;28;20109;-73
2022/11/15 09:35:37;;;;;;;10.23;2.90;;;12.50;99.90;;;;;;4966488;28;20071;-74
2022/11/15 09:38:04;;;;;;;11.85;3.22;;;12.60;99.90;;;;;;4963694;28;20046;-73
2022/11/15 09:40:32;;;;;;;10.23;2.38;;;12.70;99.90;;;;;;4967505;28;20035;-73
2022/11/15 09:43:32;;;;;;;4.28;1.65;;;12.80;99.90;;;;;;4963089;28;20066;-73
2022/11/15 09:46:23;;;;;;;2.88;1.35;;;13.00;99.90;;;;;;4967544;28;20035;-73
2022/11/15 09:48:59;;;;;;;4.50;1.73;;;13.10;99.90;;;;;;4963745;28;20027;-74
2022/11/15 09:51:46;;;;;;;2.90;1.40;;;13.10;99.90;;;;;;4966007;28;20093;-73
2022/11/15 09:54:27;;;;;;;7.32;1.13;;;13.40;99.90;;;;;;4970894;28;20364;-75
2022/11/15 09:56:55;;;;;;;6.93;1.70;;;13.60;99.90;;;;;;4956735;28;20049;-74
2022/11/15 09:59:54;;;;;;;10.10;2.83;;;13.70;99.90;;;;;;4954798;28;20038;-72
2022/11/15 10:03:08;;;;;;;8.40;3.20;;;13.50;99.90;;;;;;4962841;28;20038;-71
2022/11/15 10:05:48;;;;;;;11.60;2.63;;;13.60;99.90;;;;;;4951092;28;20138;-72
2022/11/15 10:08:44;;;;;;;9.05;2.58;;;13.60;99.90;;;;;;4962128;28;20023;-69
2022/11/15 10:11:15;;;;;;;9.27;2.63;;;13.60;99.90;;;;;;4964106;28;20034;-70
2022/11/15 10:13:47;;;;;;;14.30;2.58;;;13.50;99.90;;;;;;4962612;28;20031;-70
2022/11/15 10:16:53;;;;;;;10.32;2.78;;;13.60;99.90;;;;;;4956669;28;20043;-69
2022/11/15 10:19:53;;;;;;;28.30;6.05;;;13.60;99.90;;;;;;4961826;28;20062;-70
2022/11/15 10:22:45;;;;;;;7.40;2.33;;;13.60;99.90;;;;;;4965239;28;20031;-70
2022/11/15 10:25:27;;;;;;;10.93;3.38;;;13.70;99.90;;;;;;4964206;28;20499;-69
2022/11/15 10:27:59;;;;;;;6.40;2.08;;;13.60;99.90;;;;;;4970006;28;20041;-69
2022/11/15 10:30:41;;;;;;;7.53;2.40;;;13.70;99.90;;;;;;4969481;28;20066;-69
2022/11/15 10:33:26;;;;;;;7.55;2.25;;;13.60;99.90;;;;;;4966543;28;20094;-69
2022/11/15 10:36:11;;;;;;;29.20;7.55;;;13.70;99.90;;;;;;4979234;23;20264;-70
2022/11/15 10:39:13;;;;;;;19.25;5.70;;;13.70;99.90;;;;;;4972611;28;20716;-69
2022/11/15 10:41:42;;;;;;;4.35;2.20;;;13.70;99.90;;;;;;4967173;28;20506;-70
2022/11/15 10:44:11;;;;;;;13.10;1.88;;;13.60;99.90;;;;;;4973450;28;20832;-70
2022/11/15 10:46:40;;;;;;;5.65;1.40;;;13.60;99.90;;;;;;4975164;28;20038;-69
2022/11/15 10:49:18;;;;;;;4.47;1.77;;;13.70;99.90;;;;;;4974921;28;20038;-69
2022/11/15 10:51:53;;;;;;;4.22;1.77;;;13.60;99.90;;;;;;4973671;28;20034;-70
2022/11/15 10:54:33;;;;;;;2.20;1.52;;;13.70;99.90;;;;;;4975014;28;20034;-69
2022/11/15 10:57:06;;;;;;;2.55;1.60;;;13.70;99.90;;;;;;4973349;28;20031;-70
2022/11/15 10:59:36;;;;;;;4.18;1.70;;;13.80;99.90;;;;;;4973000;28;20046;-69
2022/11/15 11:02:02;;;;;;;3.87;1.50;;;13.90;99.90;;;;;;4974662;28;20026;-69
2022/11/15 11:04:27;;;;;;;3.25;1.65;;;13.90;99.90;;;;;;4972980;28;20577;-69
2022/11/15 11:06:59;;;;;;;2.92;1.52;;;14.00;99.90;;;;;;4973450;28;20058;-70
2022/11/15 11:09:37;;;;;;;2.70;1.70;;;13.90;99.90;;;;;;4972355;28;20046;-69
2022/11/15 11:12:09;;;;;;;2.78;1.17;;;13.80;99.90;;;;;;4974522;28;20023;-68
2022/11/15 11:14:38;;;;;;;4.50;1.55;;;13.70;99.90;;;;;;4972663;28;20031;-68
2022/11/15 11:17:18;;;;;;;3.25;1.00;;;13.70;99.90;;;;;;4973332;28;20027;-69
2022/11/15 11:20:11;;;;;;;3.25;1.80;;;13.90;99.90;;;;;;4972149;28;20521;-70
2022/11/15 11:22:54;;;;;;;5.03;1.50;;;13.90;99.90;;;;;;4969997;28;20049;-71
2022/11/15 11:25:35;;;;;;;4.05;1.27;;;13.90;99.90;;;;;;4970760;28;20446;-70
2022/11/15 11:28:26;;;;;;;2.95;1.23;;;13.80;99.90;;;;;;4957280;28;20062;-69
2022/11/15 11:30:57;;;;;;;3.10;1.38;;;13.80;99.90;;;;;;4971447;28;20039;-70
2022/11/15 11:33:59;;;;;;;2.50;1.23;;;13.80;99.90;;;;;;4974140;28;20046;-72
2022/11/15 11:36:39;;;;;;;3.03;1.20;;;14.00;99.90;;;;;;4968479;28;20082;-70
2022/11/15 11:39:38;;;;;;;4.10;1.55;;;14.20;99.90;;;;;;4971596;28;20033;-70
2022/11/15 11:42:43;;;;;;;2.25;1.23;;;14.40;99.90;;;;;;4972082;28;20074;-68
2022/11/15 11:45:35;;;;;;;1.92;0.93;;;14.40;99.90;;;;;;4973386;28;20375;-69
2022/11/15 11:48:13;;;;;;;3.22;1.27;;;14.30;99.90;;;;;;4974195;28;20125;-70
2022/11/15 11:50:43;;;;;;;2.22;1.20;;;14.20;99.90;;;;;;4972576;28;20039;-70
2022/11/15 11:53:35;;;;;;;2.85;1.67;;;14.30;99.90;;;;;;4953539;29;20028;-71
2022/11/15 11:56:23;;;;;;;4.85;1.13;;;14.40;99.90;;;;;;4978786;28;20035;-73
2022/11/15 11:58:52;;;;;;;1.25;0.68;;;14.40;99.90;;;;;;4972227;28;20030;-71
2022/11/15 12:01:26;;;;;;;3.00;1.10;;;14.40;99.90;;;;;;4971491;28;20038;-73
2022/11/15 12:04:12;;;;;;;2.65;0.90;;;14.60;99.90;;;;;;4969573;28;20042;-69
2022/11/15 12:07:11;;;;;;;0.90;0.68;;;14.90;99.90;;;;;;4958568;28;20031;-69
2022/11/15 12:09:51;;;;;;;1.42;0.60;;;15.00;99.90;;;;;;4970068;28;20069;-71
2022/11/15 12:12:48;;;;;;;2.42;1.00;;;14.60;99.90;;;;;;4971295;28;20031;-72
2022/11/15 12:15:30;;;;;;;6.22;1.27;;;14.70;99.90;;;;;;4953863;28;20054;-70
2022/11/15 12:17:57;;;;;;;0.63;0.50;;;14.50;99.90;;;;;;4958621;28;20027;-70
2022/11/15 12:20:27;;;;;;;1.17;0.70;;;14.60;99.90;;;;;;4965410;28;20059;-69
2022/11/15 12:23:04;;;;;;;2.87;0.67;;;14.70;99.90;;;;;;4973055;28;20037;-71
2022/11/15 12:25:40;;;;;;;1.23;0.60;;;14.70;99.90;;;;;;4965427;28;20683;-70
2022/11/15 12:28:44;;;;;;;4.32;0.90;;;14.80;99.90;;;;;;4958734;28;20497;-70
2022/11/15 12:31:34;;;;;;;2.47;0.77;;;14.70;99.90;;;;;;4965061;28;20075;-70
2022/11/15 12:34:19;;;;;;;2.08;0.80;;;14.70;99.90;;;;;;4969851;28;20039;-70
2022/11/15 12:36:46;;;;;;;2.92;1.00;;;14.60;99.90;;;;;;4971485;28;20043;-70
2022/11/15 12:39:13;;;;;;;3.15;1.20;;;14.50;99.90;;;;;;4972439;28;20665;-69
2022/11/15 12:41:43;;;;;;;1.73;0.80;;;14.40;99.90;;;;;;4971914;28;20069;-70
2022/11/15 12:44:30;;;;;;;6.63;2.08;;;14.50;99.90;;;;;;4971426;28;20062;-70
2022/11/15 12:46:56;;;;;;;1.48;0.65;;;14.50;99.90;;;;;;4973252;28;20109;-70
2022/11/15 12:49:27;;;;;;;1.58;0.85;;;14.60;99.90;;;;;;4972096;28;20677;-71
2022/11/15 12:51:56;;;;;;;2.42;0.95;;;14.60;99.90;;;;;;4972851;28;20035;-68
2022/11/15 12:54:22;;;;;;;2.10;0.80;;;14.60;99.90;;;;;;4972395;28;20035;-70
2022/11/15 12:57:02;;;;;;;3.58;0.93;;;14.50;99.90;;;;;;4972802;28;20022;-70
2022/11/15 13:00:17;;;;;;;1.58;0.65;;;14.50;99.90;;;;;;4971688;28;20406;-70
2022/11/15 13:02:45;;;;;;;2.08;1.15;;;14.40;99.90;;;;;;4939729;28;20101;-71
2022/11/15 13:05:22;;;;;;;2.20;0.80;;;14.40;99.90;;;;;;4971203;28;20019;-72
2022/11/15 13:07:48;;;;;;;2.38;0.90;;;14.40;99.90;;;;;;4972131;28;20034;-69
2022/11/15 13:10:13;;;;;;;8.05;0.85;;;14.50;99.90;;;;;;4971953;28;20038;-69
2022/11/15 13:12:45;;;;;;;2.80;1.30;;;14.40;99.90;;;;;;4972454;28;20035;-71
2022/11/15 13:15:16;;;;;;;1.38;0.60;;;14.40;99.90;;;;;;4968248;28;20038;-69
2022/11/15 13:17:56;;;;;;;3.33;0.73;;;14.40;99.90;;;;;;4971237;28;20070;-72
2022/11/15 13:20:31;;;;;;;1.25;0.90;;;14.40;99.90;;;;;;4967120;28;20055;-70
2022/11/15 13:23:12;;;;;;;2.55;0.88;;;14.40;99.90;;;;;;4969214;28;20517;-68
2022/11/15 13:26:01;;;;;;;;;;;14.40;99.90;;;;;;4971135;28;20031;-69
2022/11/15 13:28:29;;;;;;;2.15;1.33;;;14.50;99.90;;;;;;4957241;28;20334;-70
2022/11/15 13:30:58;;;;;;;1.38;0.80;;;14.40;99.90;;;;;;4965550;28;20050;-70